createdAt,value
2023-06-17T00:02:00.412Z,96463.56
2023-06-17T00:04:27.550Z,96463.19
2023-06-17T00:06:54.637Z,96464.69
2023-06-17T00:09:21.522Z,96461.00
2023-06-17T00:11:48.909Z,96459.81
2023-06-17T00:14:17.590Z,96459.00
2023-06-17T00:16:45.018Z,96457.06
2023-06-17T00:19:16.857Z,96452.94
2023-06-17T00:21:45.202Z,96453.38
2023-06-17T00:24:13.441Z,96449.41
2023-06-17T00:26:40.425Z,96446.56
2023-06-17T00:29:08.130Z,96452.06
2023-06-17T00:31:35.462Z,96450.72
2023-06-17T00:34:02.383Z,96446.22
2023-06-17T00:36:29.265Z,96451.41
2023-06-17T00:38:56.213Z,96451.97
2023-06-17T00:41:23.323Z,96452.41
2023-06-17T00:43:50.472Z,96449.19
2023-06-17T00:46:38.791Z,96451.25
2023-06-17T00:49:12.932Z,96452.88
2023-06-17T00:51:40.057Z,96450.22
2023-06-17T00:54:11.006Z,96449.78
2023-06-17T00:56:38.963Z,96445.50
2023-06-17T00:59:06.524Z,96447.94
2023-06-17T01:01:36.469Z,96439.72
2023-06-17T01:04:05.838Z,96436.16
2023-06-17T01:06:47.123Z,96437.53
2023-06-17T01:09:21.523Z,96440.84
2023-06-17T01:11:51.769Z,96440.25
2023-06-17T01:14:20.087Z,96431.31
2023-06-17T01:16:51.956Z,96440.63
2023-06-17T01:19:25.892Z,96440.03
2023-06-17T01:21:54.604Z,96440.50
2023-06-17T01:24:31.539Z,96443.44
2023-06-17T01:27:01.024Z,96442.69
2023-06-17T01:29:30.495Z,96439.47
2023-06-17T01:31:59.013Z,96438.28
2023-06-17T01:34:57.405Z,96445.66
2023-06-17T01:37:56.172Z,96440.97
2023-06-17T01:40:24.656Z,96436.09
2023-06-17T01:42:54.117Z,96442.06
2023-06-17T01:45:21.825Z,96443.63
2023-06-17T01:47:49.060Z,96449.34
2023-06-17T01:50:20.905Z,96450.38
2023-06-17T01:52:48.168Z,96445.06
2023-06-17T01:55:18.412Z,96446.69
2023-06-17T01:57:45.384Z,96451.38
2023-06-17T02:00:14.270Z,96450.16
2023-06-17T02:02:41.501Z,96449.13
2023-06-17T02:05:09.976Z,96455.38
2023-06-17T02:07:37.509Z,96448.03
2023-06-17T02:10:05.182Z,96450.53
2023-06-17T02:12:33.421Z,96457.72
2023-06-17T02:15:01.006Z,96442.28
2023-06-17T02:17:30.571Z,96452.34
2023-06-17T02:19:57.503Z,96445.22
2023-06-17T02:22:24.441Z,96445.06
2023-06-17T02:24:51.392Z,96442.88
2023-06-17T02:27:18.308Z,96439.91
2023-06-17T02:29:45.937Z,96440.34
2023-06-17T02:32:13.272Z,96440.03
2023-06-17T02:34:43.377Z,96454.06
2023-06-17T02:37:10.969Z,96446.25
2023-06-17T02:39:37.920Z,96450.09
2023-06-17T02:42:05.389Z,96448.03
2023-06-17T02:44:32.339Z,96455.09
2023-06-17T02:46:59.312Z,96458.34
2023-06-17T02:49:26.656Z,96460.38
2023-06-17T02:51:53.639Z,96466.72
2023-06-17T02:54:20.844Z,96458.84
2023-06-17T02:56:47.734Z,96462.13
2023-06-17T02:59:16.320Z,96461.69
2023-06-17T03:01:44.284Z,96455.00
2023-06-17T03:04:12.005Z,96457.75
2023-06-17T03:06:42.221Z,96453.91
2023-06-17T03:09:09.686Z,96456.16
2023-06-17T03:11:40.707Z,96455.03
2023-06-17T03:14:08.833Z,96449.53
2023-06-17T03:16:35.891Z,96454.44
2023-06-17T03:19:03.252Z,96455.84
2023-06-17T03:21:31.817Z,96456.69
2023-06-17T03:23:59.812Z,96461.81
2023-06-17T03:26:27.163Z,96456.38
2023-06-17T03:28:54.399Z,96454.50
2023-06-17T03:31:22.746Z,96456.38
2023-06-17T03:33:53.026Z,96458.81
2023-06-17T03:36:20.792Z,96465.34
2023-06-17T03:38:47.634Z,96457.63
2023-06-17T03:41:14.521Z,96469.38
2023-06-17T03:43:41.640Z,96462.88
2023-06-17T03:46:08.725Z,96461.28
2023-06-17T03:48:35.623Z,96465.38
2023-06-17T03:51:03.622Z,96454.00
2023-06-17T03:53:31.138Z,96451.53
2023-06-17T03:55:58.018Z,96460.44
2023-06-17T03:58:25.700Z,96456.63
2023-06-17T04:00:53.057Z,96459.25
2023-06-17T04:03:20.458Z,96458.81
2023-06-17T04:05:47.437Z,96461.25
2023-06-17T04:08:14.411Z,96465.53
2023-06-17T04:10:41.339Z,96472.03
2023-06-17T04:13:08.341Z,96463.94
2023-06-17T04:15:35.248Z,96464.09
2023-06-17T04:18:03.696Z,96460.44
2023-06-17T04:20:30.764Z,96460.03
2023-06-17T04:22:57.662Z,96455.88
2023-06-17T04:25:24.579Z,96465.56
2023-06-17T04:27:54.481Z,96463.84
2023-06-17T04:30:21.931Z,96459.72
2023-06-17T04:32:51.230Z,96453.97
2023-06-17T04:35:19.986Z,96459.38
2023-06-17T04:37:54.334Z,96463.56
2023-06-17T04:40:23.311Z,96463.03
2023-06-17T04:42:52.433Z,96454.47
2023-06-17T04:45:19.477Z,96457.63
2023-06-17T04:47:46.978Z,96456.25
2023-06-17T04:50:18.340Z,96462.16
2023-06-17T04:52:48.795Z,96454.53
2023-06-17T04:55:15.744Z,96459.25
2023-06-17T04:57:43.604Z,96459.22
2023-06-17T05:00:11.921Z,96460.47
2023-06-17T05:02:41.006Z,96463.38
2023-06-17T05:05:08.849Z,96459.53
2023-06-17T05:07:36.041Z,96452.25
2023-06-17T05:10:03.327Z,96457.97
2023-06-17T05:12:30.229Z,96457.31
2023-06-17T05:14:57.162Z,96453.38
2023-06-17T05:17:24.270Z,96455.28
2023-06-17T05:19:51.279Z,96459.88
2023-06-17T05:22:18.178Z,96462.66
2023-06-17T05:24:45.386Z,96458.78
2023-06-17T05:27:12.408Z,96467.25
2023-06-17T05:29:40.399Z,96464.56
2023-06-17T05:32:07.974Z,96469.19
2023-06-17T05:34:35.124Z,96465.53
2023-06-17T05:37:02.236Z,96463.06
2023-06-17T05:39:29.187Z,96471.00
2023-06-17T05:41:56.053Z,96462.88
2023-06-17T05:44:23.076Z,96468.94
2023-06-17T05:46:50.077Z,96462.75
2023-06-17T05:49:17.447Z,96471.97
2023-06-17T05:51:44.441Z,96467.75
2023-06-17T05:54:11.321Z,96466.84
2023-06-17T05:56:38.160Z,96475.00
2023-06-17T05:59:05.072Z,96468.63
2023-06-17T06:01:32.031Z,96462.34
2023-06-17T06:03:59.038Z,96474.06
2023-06-17T06:06:25.992Z,96480.28
2023-06-17T06:08:52.960Z,96480.25
2023-06-17T06:11:19.903Z,96480.25
2023-06-17T06:13:47.188Z,96479.31
2023-06-17T06:16:14.089Z,96468.44
2023-06-17T06:18:41.013Z,96473.09
2023-06-17T06:21:07.903Z,96475.06
2023-06-17T06:23:36.989Z,96471.41
2023-06-17T06:26:03.947Z,96474.72
2023-06-17T06:28:30.956Z,96479.94
2023-06-17T06:30:57.823Z,96480.00
2023-06-17T06:33:24.737Z,96473.63
2023-06-17T06:35:51.687Z,96480.59
2023-06-17T06:38:18.665Z,96477.66
2023-06-17T06:40:45.561Z,96486.75
2023-06-17T06:43:12.460Z,96479.09
2023-06-17T06:45:39.400Z,96486.28
2023-06-17T06:48:06.447Z,96486.91
2023-06-17T06:50:34.457Z,96483.16
2023-06-17T06:53:01.536Z,96485.50
2023-06-17T06:55:29.731Z,96491.94
2023-06-17T06:57:56.663Z,96495.72
2023-06-17T07:00:23.713Z,96486.16
2023-06-17T07:02:50.827Z,96486.84
2023-06-17T07:05:17.770Z,96491.66
2023-06-17T07:07:45.574Z,96483.78
2023-06-17T07:10:12.537Z,96484.66
2023-06-17T07:12:39.461Z,96491.19
2023-06-17T07:15:07.215Z,96496.25
2023-06-17T07:17:34.248Z,96487.38
2023-06-17T07:20:01.211Z,96493.28
2023-06-17T07:22:28.087Z,96486.16
2023-06-17T07:24:55.091Z,96481.97
2023-06-17T07:27:21.946Z,96482.78
2023-06-17T07:29:48.864Z,96486.13
2023-06-17T07:32:15.765Z,96481.09
2023-06-17T07:34:42.672Z,96481.47
2023-06-17T07:37:09.946Z,96471.78
2023-06-17T07:39:36.874Z,96480.00
2023-06-17T07:42:04.042Z,96473.81
2023-06-17T07:44:32.949Z,96483.78
2023-06-17T07:46:59.851Z,96473.88
2023-06-17T07:49:26.805Z,96468.78
2023-06-17T07:51:53.704Z,96472.84
2023-06-17T07:54:20.625Z,96475.44
2023-06-17T07:56:47.491Z,96467.56
2023-06-17T07:59:14.424Z,96465.53
2023-06-17T08:01:41.354Z,96464.72
2023-06-17T08:04:08.405Z,96462.75
2023-06-17T08:06:36.513Z,96469.03
2023-06-17T08:09:04.215Z,96462.66
2023-06-17T08:11:31.108Z,96467.44
2023-06-17T08:13:58.069Z,96467.78
2023-06-17T08:16:25.008Z,96464.56
2023-06-17T08:18:52.147Z,96464.50
2023-06-17T08:21:18.985Z,96471.91
2023-06-17T08:23:46.349Z,96466.38
2023-06-17T08:26:13.515Z,96463.97
2023-06-17T08:28:40.680Z,96461.41
2023-06-17T08:31:07.595Z,96460.56
2023-06-17T08:33:34.804Z,96441.75
2023-06-17T08:36:01.808Z,96456.03
2023-06-17T08:38:28.660Z,96449.56
2023-06-17T08:40:55.632Z,96440.88
2023-06-17T08:43:23.756Z,96439.56
2023-06-17T08:45:51.846Z,96441.50
2023-06-17T08:48:19.354Z,96442.31
2023-06-17T08:50:48.607Z,96430.25
2023-06-17T08:53:16.068Z,96437.16
2023-06-17T08:55:43.958Z,96437.19
2023-06-17T08:58:11.635Z,96434.84
2023-06-17T09:00:38.672Z,96434.25
2023-06-17T09:03:08.585Z,96437.22
2023-06-17T09:05:36.752Z,96434.34
2023-06-17T09:08:04.036Z,96432.63
2023-06-17T09:10:42.482Z,96432.53
2023-06-17T09:13:09.718Z,96427.13
2023-06-17T09:15:41.594Z,96430.22
2023-06-17T09:18:11.930Z,96426.03
2023-06-17T09:20:38.895Z,96425.50
2023-06-17T09:23:05.790Z,96424.22
2023-06-17T09:25:36.416Z,96435.38
2023-06-17T09:28:15.996Z,96428.94
2023-06-17T09:30:44.896Z,96425.09
2023-06-17T09:33:22.997Z,96423.47
2023-06-17T09:36:05.809Z,96412.72
2023-06-17T09:38:33.585Z,96416.25
2023-06-17T09:41:00.987Z,96412.41
2023-06-17T09:43:29.429Z,96404.97
2023-06-17T09:46:01.481Z,96406.22
2023-06-17T09:48:33.487Z,96404.16
2023-06-17T09:51:01.433Z,96406.84
2023-06-17T09:53:30.781Z,96405.72
2023-06-17T09:56:00.880Z,96406.50
2023-06-17T09:58:32.571Z,96409.28
2023-06-17T10:01:07.089Z,96398.47
2023-06-17T10:03:35.007Z,96398.69
2023-06-17T10:06:10.553Z,96391.69
2023-06-17T10:08:40.843Z,96401.84
2023-06-17T10:11:07.848Z,96397.06
2023-06-17T10:13:38.030Z,96386.16
2023-06-17T10:16:12.725Z,96383.28
2023-06-17T10:18:42.357Z,96386.72
2023-06-17T10:21:12.802Z,96392.91
2023-06-17T10:23:42.590Z,96394.19
2023-06-17T10:26:12.779Z,96402.25
2023-06-17T10:28:54.488Z,96394.03
2023-06-17T10:31:27.514Z,96394.22
2023-06-17T10:33:56.404Z,96389.44
2023-06-17T10:36:25.208Z,96380.72
2023-06-17T10:39:05.615Z,96389.59
2023-06-17T10:41:41.592Z,96377.31
2023-06-17T10:44:36.688Z,96388.63
2023-06-17T10:47:16.664Z,96366.44
2023-06-17T10:49:43.822Z,96373.31
2023-06-17T10:52:15.446Z,96360.34
2023-06-17T10:54:55.315Z,96363.31
2023-06-17T10:57:36.830Z,96373.75
2023-06-17T11:00:13.109Z,96361.34
2023-06-17T11:02:40.915Z,96360.63
2023-06-17T11:05:09.373Z,96352.84
2023-06-17T11:07:37.494Z,96360.38
2023-06-17T11:10:05.406Z,96348.53
2023-06-17T11:12:33.264Z,96346.22
2023-06-17T11:15:01.433Z,96351.94
2023-06-17T11:17:28.746Z,96349.84
2023-06-17T11:19:56.340Z,96340.88
2023-06-17T11:22:24.026Z,96341.91
2023-06-17T11:24:50.945Z,96338.13
2023-06-17T11:27:18.585Z,96343.69
2023-06-17T11:29:46.026Z,96339.06
2023-06-17T11:32:13.647Z,96337.44
2023-06-17T11:34:42.817Z,96331.34
2023-06-17T11:37:12.413Z,96344.63
2023-06-17T11:39:40.214Z,96330.88
2023-06-17T11:42:09.770Z,96334.50
2023-06-17T11:44:37.148Z,96326.56
2023-06-17T11:47:09.899Z,96328.94
2023-06-17T11:49:41.646Z,96330.88
2023-06-17T11:52:10.591Z,96331.53
2023-06-17T11:54:49.992Z,96314.94
2023-06-17T11:57:22.374Z,96321.13
2023-06-17T11:59:51.113Z,96314.56
2023-06-17T12:02:18.593Z,96313.31
2023-06-17T12:04:47.258Z,96304.19
2023-06-17T12:07:14.853Z,96305.00
2023-06-17T12:09:55.566Z,96301.16
2023-06-17T12:12:34.560Z,96305.91
2023-06-17T12:15:14.813Z,96293.09
2023-06-17T12:17:53.151Z,96297.63
2023-06-17T12:20:22.353Z,96299.25
2023-06-17T12:22:51.854Z,96293.03
2023-06-17T12:25:19.518Z,96291.16
2023-06-17T12:27:47.144Z,96278.06
2023-06-17T12:30:14.918Z,96277.31
2023-06-17T12:32:42.249Z,96273.22
2023-06-17T12:35:12.553Z,96278.63
2023-06-17T12:37:43.573Z,96285.75
2023-06-17T12:40:11.262Z,96282.28
2023-06-17T12:42:38.317Z,96262.28
2023-06-17T12:45:07.313Z,96267.13
2023-06-17T12:47:35.136Z,96266.34
2023-06-17T12:50:02.257Z,96275.69
2023-06-17T12:52:29.328Z,96266.34
2023-06-17T12:55:00.452Z,96261.25
2023-06-17T12:57:28.363Z,96257.22
2023-06-17T12:59:55.741Z,96261.03
2023-06-17T13:02:23.058Z,96260.19
2023-06-17T13:04:50.531Z,96264.28
2023-06-17T13:07:17.977Z,96274.31
2023-06-17T13:09:44.919Z,96266.72
2023-06-17T13:12:12.393Z,96257.59
2023-06-17T13:14:39.391Z,96258.03
2023-06-17T13:17:07.142Z,96262.97
2023-06-17T13:19:34.179Z,96250.56
2023-06-17T13:22:01.121Z,96246.78
2023-06-17T13:24:28.330Z,96261.28
2023-06-17T13:26:55.962Z,96255.50
2023-06-17T13:29:24.179Z,96261.63
2023-06-17T13:31:51.404Z,96253.13
2023-06-17T13:34:19.218Z,96260.00
2023-06-17T13:36:47.358Z,96255.31
2023-06-17T13:39:15.077Z,96253.50
2023-06-17T13:41:42.499Z,96253.59
2023-06-17T13:44:09.892Z,96256.25
2023-06-17T13:46:37.150Z,96250.91
2023-06-17T13:49:04.605Z,96257.34
2023-06-17T13:51:32.527Z,96245.13
2023-06-17T13:54:01.834Z,96239.34
2023-06-17T13:56:29.159Z,96238.00
2023-06-17T13:58:56.721Z,96251.13
2023-06-17T14:01:24.837Z,96244.28
2023-06-17T14:03:52.377Z,96241.84
2023-06-17T14:06:20.844Z,96232.78
2023-06-17T14:08:48.067Z,96235.47
2023-06-17T14:11:15.016Z,96238.56
2023-06-17T14:13:43.926Z,96241.34
2023-06-17T14:16:12.166Z,96237.31
2023-06-17T14:18:39.277Z,96228.31
2023-06-17T14:21:06.293Z,96225.66
2023-06-17T14:23:33.277Z,96225.75
2023-06-17T14:26:01.040Z,96217.84
2023-06-17T14:28:27.956Z,96223.78
2023-06-17T14:30:54.849Z,96232.16
2023-06-17T14:33:21.727Z,96224.19
2023-06-17T14:35:48.607Z,96218.56
2023-06-17T14:38:15.526Z,96222.28
2023-06-17T14:40:42.413Z,96218.47
2023-06-17T14:43:09.359Z,96228.72
2023-06-17T14:45:36.355Z,96229.41
2023-06-17T14:48:04.272Z,96214.75
2023-06-17T14:50:31.264Z,96219.72
2023-06-17T14:52:58.202Z,96215.13
2023-06-17T14:55:25.084Z,96214.00
2023-06-17T14:57:52.253Z,96216.88
2023-06-17T15:00:20.791Z,96221.03
2023-06-17T15:02:56.169Z,96215.72
2023-06-17T15:05:25.196Z,96221.25
2023-06-17T15:07:53.109Z,96215.34
2023-06-17T15:10:20.183Z,96217.03
2023-06-17T15:12:47.471Z,96206.50
2023-06-17T15:15:14.994Z,96215.63
2023-06-17T15:17:42.609Z,96212.41
2023-06-17T15:20:10.963Z,96209.69
2023-06-17T15:22:39.366Z,96202.34
2023-06-17T15:25:08.057Z,96215.13
2023-06-17T15:27:35.016Z,96204.00
2023-06-17T15:30:02.186Z,96202.44
2023-06-17T15:32:29.161Z,96208.22
2023-06-17T15:34:56.589Z,96199.06
2023-06-17T15:37:23.581Z,96195.88
2023-06-17T15:39:50.933Z,96190.69
2023-06-17T15:42:17.898Z,96202.03
2023-06-17T15:44:44.787Z,96200.63
2023-06-17T15:47:11.789Z,96179.63
2023-06-17T15:49:38.811Z,96185.56
2023-06-17T15:52:06.607Z,96194.53
2023-06-17T15:54:33.470Z,96194.59
2023-06-17T15:57:02.451Z,96194.94
2023-06-17T15:59:30.041Z,96185.84
2023-06-17T16:01:57.057Z,96193.16
2023-06-17T16:04:41.255Z,96197.13
2023-06-17T16:07:13.979Z,96201.19
2023-06-17T16:09:45.552Z,96192.22
2023-06-17T16:12:13.039Z,96193.38
2023-06-17T16:14:40.029Z,96200.81
2023-06-17T16:17:09.311Z,96188.34
2023-06-17T16:19:38.229Z,96199.34
2023-06-17T16:22:10.997Z,96190.28
2023-06-17T16:24:39.371Z,96185.25
2023-06-17T16:27:06.556Z,96188.59
2023-06-17T16:29:33.524Z,96188.31
2023-06-17T16:32:00.502Z,96194.06
2023-06-17T16:34:27.458Z,96189.75
2023-06-17T16:36:54.346Z,96191.16
2023-06-17T16:39:21.456Z,96186.69
2023-06-17T16:41:48.468Z,96189.25
2023-06-17T16:44:15.436Z,96190.34
2023-06-17T16:46:42.374Z,96191.13
2023-06-17T16:49:09.301Z,96185.81
2023-06-17T16:51:36.221Z,96191.81
2023-06-17T16:54:06.451Z,96199.13
2023-06-17T16:56:33.749Z,96201.97
2023-06-17T16:59:02.066Z,96199.00
2023-06-17T17:01:29.808Z,96202.47
2023-06-17T17:04:01.176Z,96205.31
2023-06-17T17:06:28.118Z,96206.88
2023-06-17T17:08:55.241Z,96205.13
2023-06-17T17:11:22.219Z,96206.34
2023-06-17T17:13:50.027Z,96211.38
2023-06-17T17:16:18.510Z,96211.25
2023-06-17T17:18:45.901Z,96206.72
2023-06-17T17:21:13.053Z,96213.88
2023-06-17T17:23:44.004Z,96214.69
2023-06-17T17:26:13.189Z,96206.75
2023-06-17T17:28:43.233Z,96211.25
2023-06-17T17:31:10.376Z,96212.75
2023-06-17T17:33:37.899Z,96215.72
2023-06-17T17:36:05.176Z,96211.81
2023-06-17T17:38:32.430Z,96208.47
2023-06-17T17:40:59.329Z,96218.13
2023-06-17T17:43:27.179Z,96216.22
2023-06-17T17:45:56.334Z,96216.34
2023-06-17T17:48:23.346Z,96220.38
2023-06-17T17:50:51.408Z,96215.28
2023-06-17T17:53:18.459Z,96218.41
2023-06-17T17:55:45.425Z,96224.53
2023-06-17T17:58:12.293Z,96221.47
2023-06-17T18:00:39.270Z,96222.69
2023-06-17T18:03:06.292Z,96230.72
2023-06-17T18:05:33.672Z,96231.56
2023-06-17T18:08:00.564Z,96237.06
2023-06-17T18:10:27.473Z,96239.34
2023-06-17T18:12:54.353Z,96235.56
2023-06-17T18:15:21.443Z,96237.75
2023-06-17T18:17:48.328Z,96236.44
2023-06-17T18:20:15.365Z,96238.50
2023-06-17T18:22:42.279Z,96235.22
2023-06-17T18:25:09.988Z,96232.88
2023-06-17T18:27:38.426Z,96248.75
2023-06-17T18:30:06.416Z,96245.03
2023-06-17T18:32:33.352Z,96245.53
2023-06-17T18:35:00.362Z,96248.09
2023-06-17T18:37:27.324Z,96244.75
2023-06-17T18:39:54.365Z,96241.66
2023-06-17T18:42:23.368Z,96246.16
2023-06-17T18:44:50.230Z,96245.22
2023-06-17T18:47:17.139Z,96253.97
2023-06-17T18:49:43.989Z,96254.31
2023-06-17T18:52:10.939Z,96249.28
2023-06-17T18:54:37.816Z,96251.09
2023-06-17T18:57:05.578Z,96252.34
2023-06-17T18:59:32.726Z,96257.94
2023-06-17T19:01:59.661Z,96257.53
2023-06-17T19:04:26.571Z,96261.34
2023-06-17T19:06:53.467Z,96268.06
2023-06-17T19:09:20.575Z,96267.38
2023-06-17T19:11:47.538Z,96275.50
2023-06-17T19:14:14.510Z,96277.22
2023-06-17T19:16:42.867Z,96274.88
2023-06-17T19:19:09.898Z,96276.28
2023-06-17T19:21:36.779Z,96271.84
2023-06-17T19:24:04.069Z,96277.47
2023-06-17T19:26:31.049Z,96285.31
2023-06-17T19:28:57.971Z,96289.94
2023-06-17T19:31:25.912Z,96287.25
2023-06-17T19:33:53.916Z,96294.75
2023-06-17T19:36:20.863Z,96295.81
2023-06-17T19:38:47.768Z,96294.75
2023-06-17T19:41:14.652Z,96293.72
2023-06-17T19:43:41.541Z,96301.75
2023-06-17T19:46:09.220Z,96309.25
2023-06-17T19:48:36.720Z,96303.09
2023-06-17T19:51:03.647Z,96316.75
2023-06-17T19:53:31.420Z,96316.75
2023-06-17T19:55:58.566Z,96313.50
2023-06-17T19:58:25.569Z,96314.53
2023-06-17T20:00:52.569Z,96317.16
2023-06-17T20:03:19.615Z,96313.41
2023-06-17T20:05:47.098Z,96316.03
2023-06-17T20:08:14.668Z,96311.72
2023-06-17T20:10:42.570Z,96320.22
2023-06-17T20:13:09.907Z,96320.72
2023-06-17T20:15:38.178Z,96321.72
2023-06-17T20:18:05.571Z,96323.56
2023-06-17T20:20:33.509Z,96327.50
2023-06-17T20:23:00.580Z,96330.69
2023-06-17T20:25:27.535Z,96334.06
2023-06-17T20:27:54.402Z,96336.41
2023-06-17T20:30:21.919Z,96333.66
2023-06-17T20:32:49.085Z,96328.25
2023-06-17T20:35:16.105Z,96335.66
2023-06-17T20:37:44.592Z,96325.41
2023-06-17T20:40:12.215Z,96325.88
2023-06-17T20:42:39.195Z,96326.91
2023-06-17T20:45:08.616Z,96325.91
2023-06-17T20:47:36.299Z,96327.97
2023-06-17T20:50:03.727Z,96330.63
2023-06-17T20:52:30.795Z,96329.59
2023-06-17T20:54:57.750Z,96328.50
2023-06-17T20:57:24.641Z,96336.50
2023-06-17T20:59:53.470Z,96326.84
2023-06-17T21:02:20.688Z,96326.53
2023-06-17T21:04:47.789Z,96328.88
2023-06-17T21:07:14.725Z,96328.00
2023-06-17T21:09:42.388Z,96323.41
2023-06-17T21:12:09.586Z,96330.81
2023-06-17T21:14:36.719Z,96325.38
2023-06-17T21:17:03.777Z,96330.13
2023-06-17T21:19:30.977Z,96334.34
2023-06-17T21:21:57.876Z,96330.06
2023-06-17T21:24:24.835Z,96331.06
2023-06-17T21:26:51.743Z,96332.91
2023-06-17T21:29:18.663Z,96329.44
2023-06-17T21:31:45.631Z,96330.03
2023-06-17T21:34:12.723Z,96335.34
2023-06-17T21:36:40.448Z,96322.06
2023-06-17T21:39:07.381Z,96320.63
2023-06-17T21:41:34.272Z,96333.13
2023-06-17T21:44:01.188Z,96329.72
2023-06-17T21:46:31.032Z,96320.91
2023-06-17T21:48:58.344Z,96328.66
2023-06-17T21:51:25.316Z,96331.84
2023-06-17T21:53:52.266Z,96333.81
2023-06-17T21:56:19.156Z,96339.53
2023-06-17T21:58:46.390Z,96343.47
2023-06-17T22:01:13.344Z,96356.84
2023-06-17T22:03:41.695Z,96344.28
2023-06-17T22:06:09.056Z,96347.50
2023-06-17T22:08:42.880Z,96352.59
2023-06-17T22:11:12.142Z,96349.28
2023-06-17T22:13:39.626Z,96344.50
2023-06-17T22:16:06.870Z,96354.34
2023-06-17T22:18:34.005Z,96348.13
2023-06-17T22:21:01.054Z,96345.25
2023-06-17T22:23:27.956Z,96351.38
2023-06-17T22:25:56.615Z,96344.50
2023-06-17T22:28:23.727Z,96347.28
2023-06-17T22:30:50.929Z,96353.25
2023-06-17T22:33:17.856Z,96355.22
2023-06-17T22:35:44.725Z,96353.94
2023-06-17T22:38:13.856Z,96351.75
2023-06-17T22:40:40.808Z,96346.22
2023-06-17T22:43:07.865Z,96350.38
2023-06-17T22:45:34.888Z,96348.16
2023-06-17T22:48:03.438Z,96346.53
2023-06-17T22:50:30.878Z,96345.72
2023-06-17T22:52:57.732Z,96342.03
2023-06-17T22:55:24.619Z,96346.69
2023-06-17T22:57:51.766Z,96343.69
2023-06-17T23:00:19.143Z,96352.59
2023-06-17T23:02:46.462Z,96349.94
2023-06-17T23:05:13.478Z,96353.00
2023-06-17T23:07:40.391Z,96358.63
2023-06-17T23:10:07.940Z,96353.16
2023-06-17T23:12:34.874Z,96361.66
2023-06-17T23:15:01.965Z,96348.31
2023-06-17T23:17:28.992Z,96344.41
2023-06-17T23:20:00.455Z,96341.75
2023-06-17T23:22:28.174Z,96348.94
2023-06-17T23:24:56.177Z,96349.19
2023-06-17T23:27:27.880Z,96342.81
2023-06-17T23:29:56.051Z,96347.38
2023-06-17T23:32:24.174Z,96345.69
2023-06-17T23:34:54.734Z,96337.59
2023-06-17T23:37:21.908Z,96350.63
2023-06-17T23:39:48.986Z,96340.16
2023-06-17T23:42:15.911Z,96341.56
2023-06-17T23:44:43.350Z,96342.53
2023-06-17T23:47:11.276Z,96343.69
2023-06-17T23:49:40.811Z,96344.94
2023-06-17T23:52:11.646Z,96342.53
2023-06-17T23:54:38.753Z,96338.28
2023-06-17T23:57:06.120Z,96340.59
2023-06-17T23:59:33.404Z,96349.72
